createdAt,value
2023-03-18T10:42:56.125Z,43.52
2023-03-18T10:43:57.254Z,43.26
2023-03-18T10:44:57.417Z,44.29
2023-03-18T10:45:57.155Z,43.88
2023-03-18T10:46:57.271Z,46.28
2023-03-18T10:47:57.280Z,44.04
2023-03-18T10:48:57.069Z,44.47
2023-03-18T10:49:57.072Z,45.94
2023-03-18T10:50:57.060Z,45.32
2023-03-18T10:51:57.043Z,45.79
2023-03-18T10:52:57.077Z,44.15
2023-03-18T10:53:57.312Z,44.63
2023-03-18T10:54:57.053Z,46.02
2023-03-18T10:55:57.627Z,45.59
2023-03-18T10:56:56.963Z,45.97
2023-03-18T10:58:17.951Z,46.61
2023-03-18T10:58:57.088Z,48.58
2023-03-18T10:59:57.007Z,48.21
2023-03-18T11:00:57.071Z,46.95
2023-03-18T11:01:56.925Z,45.79
2023-03-18T11:02:57.037Z,46.20
2023-03-18T11:03:56.888Z,46.25
2023-03-18T11:04:56.894Z,47.17
2023-03-18T11:05:56.949Z,48.10
2023-03-18T11:06:57.107Z,50.87
2023-03-18T11:07:56.903Z,50.21
2023-03-18T11:08:57.063Z,52.26
2023-03-18T11:09:56.936Z,53.40
2023-03-18T11:10:56.772Z,52.69
2023-03-18T11:11:56.862Z,53.12
2023-03-18T11:12:56.756Z,53.32
2023-03-18T11:13:56.762Z,53.98
2023-03-18T11:14:56.752Z,54.99
2023-03-18T11:15:57.045Z,54.69
2023-03-18T11:16:56.748Z,54.90
2023-03-18T11:17:56.728Z,55.40
2023-03-18T11:18:56.750Z,55.78
2023-03-18T11:19:56.650Z,55.17
2023-03-18T11:20:56.759Z,54.57
2023-03-18T11:21:56.654Z,54.77
2023-03-18T11:22:56.712Z,56.26
2023-03-18T11:23:56.604Z,54.84
2023-03-18T11:24:56.784Z,54.94
2023-03-18T11:25:56.593Z,54.33
2023-03-18T11:26:56.602Z,54.05
2023-03-18T11:27:56.564Z,54.53
2023-03-18T11:28:56.811Z,54.77
2023-03-18T11:29:56.612Z,55.27
2023-03-18T11:30:56.843Z,56.18
2023-03-18T11:31:56.580Z,56.26
2023-03-18T11:32:56.811Z,54.94
2023-03-18T11:33:56.588Z,54.94
2023-03-18T11:34:56.508Z,54.36
2023-03-18T11:35:56.671Z,55.96
2023-03-18T11:36:56.414Z,56.05
2023-03-18T11:37:56.422Z,55.45
2023-03-18T11:38:56.412Z,54.44
2023-03-18T11:39:59.135Z,57.48
2023-03-18T11:40:56.489Z,55.65
2023-03-18T11:41:56.390Z,55.45
2023-03-18T11:42:56.441Z,54.53
2023-03-18T11:43:56.607Z,54.92
2023-03-18T11:44:56.423Z,53.40
2023-03-18T11:45:56.574Z,53.50
2023-03-18T11:46:56.536Z,55.52
2023-03-18T11:47:56.263Z,54.77
2023-03-18T11:48:56.413Z,55.68
2023-03-18T11:49:56.263Z,55.07
2023-03-18T11:50:56.406Z,54.84
2023-03-18T11:51:56.247Z,56.97
2023-03-18T11:52:56.279Z,55.73
2023-03-18T11:53:56.238Z,54.51
2023-03-18T11:54:56.407Z,54.41
2023-03-18T11:55:56.269Z,54.82
2023-03-18T11:56:56.175Z,54.51
2023-03-18T11:57:56.260Z,54.71
2023-03-18T11:58:56.213Z,54.71
2023-03-18T11:59:56.289Z,54.79
2023-03-18T12:00:56.125Z,53.58
2023-03-18T12:01:56.095Z,54.38
2023-03-18T12:02:56.096Z,55.27
2023-03-18T12:03:56.085Z,55.98
2023-03-18T12:04:56.276Z,55.17
2023-03-18T12:05:56.046Z,54.26
2023-03-18T12:06:56.130Z,54.76
2023-03-18T12:07:56.044Z,54.66
2023-03-18T12:08:58.844Z,54.76
2023-03-18T12:09:56.002Z,57.50
2023-03-18T12:10:56.103Z,57.29
2023-03-18T12:11:55.949Z,54.56
2023-03-18T12:12:56.091Z,55.04
2023-03-18T12:13:55.930Z,55.85
2023-03-18T12:14:55.981Z,55.85
2023-03-18T12:15:56.017Z,54.31
2023-03-18T12:16:55.953Z,53.63
2023-03-18T12:17:55.936Z,53.63
2023-03-18T12:18:56.097Z,54.26
2023-03-18T12:19:55.845Z,54.36
2023-03-18T12:20:55.866Z,54.56
2023-03-18T12:21:55.811Z,55.37
2023-03-18T12:22:55.822Z,54.97
2023-03-18T12:23:55.796Z,54.53
2023-03-18T12:24:55.851Z,54.44
2023-03-18T12:25:55.771Z,54.23
2023-03-18T12:26:55.783Z,54.33
2023-03-18T12:27:55.951Z,56.15
2023-03-18T12:28:55.910Z,54.84
2023-03-18T12:29:55.707Z,53.63
2023-03-18T12:30:55.857Z,53.60
2023-03-18T12:31:56.012Z,54.91
2023-03-18T12:32:55.713Z,54.71
2023-03-18T12:33:55.666Z,55.02
2023-03-18T12:34:55.731Z,54.21
2023-03-18T12:35:55.633Z,54.00
2023-03-18T12:36:55.870Z,54.05
2023-03-18T12:37:55.623Z,54.18
2023-03-18T12:38:55.813Z,55.60
2023-03-18T12:39:55.625Z,55.57
2023-03-18T12:40:55.898Z,56.48
2023-03-18T12:41:55.642Z,55.24
2023-03-18T12:42:55.584Z,55.04
2023-03-18T12:43:55.617Z,54.84
2023-03-18T12:44:55.540Z,54.13
2023-03-18T12:45:55.628Z,55.95
2023-03-18T12:46:55.609Z,55.32
2023-03-18T12:47:55.467Z,54.31
2023-03-18T12:48:55.469Z,54.11
2023-03-18T12:49:55.474Z,54.00
2023-03-18T12:50:55.468Z,54.71
2023-03-18T12:51:55.392Z,54.31
2023-03-18T12:52:55.594Z,54.21
2023-03-18T12:53:55.646Z,54.41
2023-03-18T12:54:55.428Z,55.15
2023-03-18T12:55:55.629Z,54.82
2023-03-18T12:56:55.357Z,54.53
2023-03-18T12:57:55.327Z,53.70
2023-03-18T12:58:55.546Z,54.23
2023-03-18T12:59:55.312Z,55.52
2023-03-18T13:00:55.553Z,55.32
2023-03-18T13:01:55.369Z,56.10
2023-03-18T13:02:55.387Z,54.08
2023-03-18T13:03:55.321Z,54.96
2023-03-18T13:04:55.547Z,53.65
2023-03-18T13:05:55.287Z,55.19
2023-03-18T13:06:55.247Z,53.88
2023-03-18T13:07:55.319Z,53.88
2023-03-18T13:08:55.190Z,53.67
2023-03-18T13:09:56.143Z,54.76
2023-03-18T13:10:55.258Z,55.16
2023-03-18T13:11:55.164Z,54.76
2023-03-18T13:12:55.120Z,54.25
2023-03-18T13:13:55.450Z,54.36
2023-03-18T13:14:55.222Z,53.65
2023-03-18T13:15:55.145Z,53.96
2023-03-18T13:16:55.298Z,54.05
2023-03-18T13:17:55.100Z,54.05
2023-03-18T13:18:55.164Z,53.88
2023-03-18T13:19:55.027Z,53.58
2023-03-18T13:20:55.147Z,54.79
2023-03-18T13:21:55.096Z,55.09
2023-03-18T13:22:55.028Z,54.89
2023-03-18T13:23:55.026Z,54.00
2023-03-18T13:24:55.138Z,55.02
2023-03-18T13:25:54.987Z,55.65
2023-03-18T13:26:54.962Z,55.22
2023-03-18T13:27:54.996Z,55.22
2023-03-18T13:28:54.893Z,55.52
2023-03-18T13:29:55.011Z,56.02
2023-03-18T13:30:54.970Z,55.62
2023-03-18T13:31:54.857Z,55.52
2023-03-18T13:32:54.871Z,55.02
2023-03-18T13:33:54.914Z,56.13
2023-03-18T13:34:54.822Z,55.62
2023-03-18T13:35:55.102Z,56.23
2023-03-18T13:36:54.874Z,55.22
2023-03-18T13:37:54.824Z,54.51
2023-03-18T13:38:54.820Z,54.82
2023-03-18T13:39:54.796Z,54.91
2023-03-18T13:40:54.803Z,55.42
2023-03-18T13:41:54.768Z,54.71
2023-03-18T13:42:54.846Z,55.62
2023-03-18T13:43:54.731Z,55.52
2023-03-18T13:44:54.840Z,55.02
2023-03-18T13:45:54.957Z,56.53
2023-03-18T13:46:54.685Z,56.23
2023-03-18T13:47:54.689Z,54.91
2023-03-18T13:48:54.676Z,56.53
2023-03-18T13:49:54.702Z,57.52
2023-03-18T13:50:54.815Z,56.10
2023-03-18T13:51:55.136Z,55.29
2023-03-18T13:52:54.598Z,55.90
2023-03-18T13:53:54.676Z,54.69
2023-03-18T13:54:54.802Z,55.09
2023-03-18T13:55:54.667Z,54.69
2023-03-18T13:56:54.516Z,55.49
2023-03-18T13:57:54.608Z,55.80
2023-03-18T13:58:54.526Z,55.29
2023-03-18T13:59:54.662Z,54.89
2023-03-18T14:00:54.526Z,55.73
2023-03-18T14:01:54.769Z,55.02
2023-03-18T14:02:54.599Z,55.42
2023-03-18T14:03:54.529Z,55.11
2023-03-18T14:04:54.570Z,56.73
2023-03-18T14:05:54.439Z,55.52
2023-03-18T14:06:54.600Z,55.40
2023-03-18T14:07:54.387Z,55.60
2023-03-18T14:08:54.612Z,55.80
2023-03-18T14:09:57.078Z,55.90
2023-03-18T14:10:54.441Z,55.80
2023-03-18T14:11:54.330Z,55.09
2023-03-18T14:12:54.504Z,54.58
2023-03-18T14:13:54.357Z,55.09
2023-03-18T14:14:54.681Z,55.07
2023-03-18T14:15:54.390Z,55.36
2023-03-18T14:16:54.476Z,55.98
2023-03-18T14:17:54.352Z,56.38
2023-03-18T14:18:54.251Z,55.36
2023-03-18T14:19:54.364Z,55.98
2023-03-18T14:20:54.502Z,54.94
2023-03-18T14:21:54.362Z,54.66
2023-03-18T14:22:54.154Z,54.25
2023-03-18T14:23:54.398Z,54.66
2023-03-18T14:24:54.222Z,55.67
2023-03-18T14:25:54.347Z,55.07
2023-03-18T14:26:54.499Z,54.66
2023-03-18T14:27:54.350Z,55.36
2023-03-18T14:28:54.189Z,55.57
2023-03-18T14:29:54.358Z,54.76
2023-03-18T14:30:55.363Z,55.16
2023-03-18T14:31:54.984Z,54.99
2023-03-18T14:32:54.438Z,54.79
2023-03-18T14:33:54.704Z,54.69
2023-03-18T14:34:54.016Z,54.89
2023-03-18T14:35:54.149Z,55.07
2023-03-18T14:36:54.047Z,56.07
2023-03-18T14:37:54.109Z,55.98
2023-03-18T14:38:54.109Z,54.96
2023-03-18T14:39:54.114Z,54.16
2023-03-18T14:40:54.296Z,55.07
2023-03-18T14:41:54.040Z,54.25
2023-03-18T14:42:54.202Z,54.16
2023-03-18T14:43:54.055Z,54.56
2023-03-18T14:44:54.168Z,53.96
2023-03-18T14:45:54.040Z,54.25
2023-03-18T14:46:53.962Z,54.56
2023-03-18T14:47:53.842Z,54.66
2023-03-18T14:48:53.848Z,54.96
2023-03-18T14:49:53.811Z,55.16
2023-03-18T14:50:54.324Z,55.60
2023-03-18T14:51:54.025Z,55.09
2023-03-18T14:52:53.864Z,55.09
2023-03-18T14:53:54.165Z,54.69
2023-03-18T14:54:53.759Z,54.69
2023-03-18T14:55:56.552Z,54.18
2023-03-18T14:56:53.868Z,54.49
2023-03-18T14:57:53.730Z,55.02
2023-03-18T14:58:53.690Z,55.73
2023-03-18T14:59:54.938Z,55.62
2023-03-18T15:00:53.679Z,54.82
2023-03-18T15:01:53.796Z,54.91
2023-03-18T15:02:53.766Z,55.02
2023-03-18T15:03:53.748Z,55.73
2023-03-18T15:04:53.583Z,53.90
2023-03-18T15:05:53.686Z,55.02
2023-03-18T15:06:53.592Z,55.02
2023-03-18T15:07:53.691Z,55.42
2023-03-18T15:08:53.631Z,57.14
2023-03-18T15:09:53.694Z,55.82
2023-03-18T15:10:53.504Z,56.23
2023-03-18T15:11:53.529Z,56.36
2023-03-18T15:12:53.519Z,55.95
2023-03-18T15:13:53.701Z,55.75
2023-03-18T15:14:53.541Z,55.75
2023-03-18T15:15:53.552Z,55.65
2023-03-18T15:16:53.569Z,56.15
2023-03-18T15:17:53.433Z,56.56
2023-03-18T15:18:53.570Z,56.15
2023-03-18T15:19:53.675Z,56.46
2023-03-18T15:20:53.444Z,55.95
2023-03-18T15:21:53.411Z,55.85
2023-03-18T15:22:53.334Z,56.15
2023-03-18T15:23:53.382Z,56.76
2023-03-18T15:24:53.580Z,56.46
2023-03-18T15:25:53.376Z,57.27
2023-03-18T15:26:53.367Z,57.57
2023-03-18T15:27:53.386Z,57.90
2023-03-18T15:28:53.313Z,57.29
2023-03-18T15:29:53.396Z,58.00
2023-03-18T15:30:53.261Z,57.09
2023-03-18T15:31:53.634Z,56.99
2023-03-18T15:32:53.299Z,56.89
2023-03-18T15:33:53.212Z,57.09
2023-03-18T15:34:53.237Z,57.80
2023-03-18T15:35:53.219Z,57.02
2023-03-18T15:36:53.367Z,57.73
2023-03-18T15:37:53.148Z,56.82
2023-03-18T15:38:53.137Z,57.12
2023-03-18T15:39:53.129Z,56.61
2023-03-18T15:40:53.228Z,57.32
2023-03-18T15:41:53.387Z,57.32
2023-03-18T15:42:53.305Z,57.42
2023-03-18T15:43:53.074Z,57.53
2023-03-18T15:44:53.056Z,57.32
2023-03-18T15:45:53.226Z,57.65
2023-03-18T15:46:53.212Z,57.65
2023-03-18T15:47:53.052Z,57.86
2023-03-18T15:48:53.342Z,57.55
2023-03-18T15:49:52.971Z,57.55
2023-03-18T15:50:52.992Z,57.86
2023-03-18T15:51:53.050Z,57.96
2023-03-18T15:52:52.940Z,58.16
2023-03-18T15:53:53.128Z,59.17
2023-03-18T15:54:53.001Z,58.39
2023-03-18T15:55:53.084Z,59.10
2023-03-18T15:56:55.153Z,58.39
2023-03-18T15:57:53.112Z,58.18
2023-03-18T15:58:52.912Z,59.20
2023-03-18T15:59:53.066Z,58.80
2023-03-18T16:00:53.082Z,59.30
2023-03-18T16:01:52.843Z,59.10
2023-03-18T16:02:52.979Z,59.43
2023-03-18T16:03:52.833Z,59.63
2023-03-18T16:04:52.892Z,59.53
2023-03-18T16:05:52.792Z,59.63
2023-03-18T16:06:52.955Z,59.94
2023-03-18T16:07:52.763Z,59.53
2023-03-18T16:08:52.875Z,60.04
2023-03-18T16:09:52.742Z,59.63
2023-03-18T16:10:52.764Z,59.77
2023-03-18T16:11:52.724Z,59.66
2023-03-18T16:12:52.756Z,59.36
2023-03-18T16:13:52.764Z,59.86
2023-03-18T16:14:52.635Z,59.77
2023-03-18T16:15:52.776Z,60.27
2023-03-18T16:16:52.698Z,59.97
2023-03-18T16:17:52.586Z,59.86
2023-03-18T16:18:52.716Z,60.27
2023-03-18T16:19:52.723Z,60.20
2023-03-18T16:20:52.561Z,60.60
2023-03-18T16:21:52.764Z,60.60
2023-03-18T16:22:52.536Z,60.40
2023-03-18T16:23:52.539Z,60.30
2023-03-18T16:24:52.623Z,61.04
2023-03-18T16:25:52.484Z,61.14
2023-03-18T16:26:52.595Z,61.14
2023-03-18T16:27:52.583Z,61.75
2023-03-18T16:28:52.576Z,61.34
2023-03-18T16:29:52.735Z,61.34
2023-03-18T16:30:52.483Z,61.95
2023-03-18T16:31:52.498Z,61.75
2023-03-18T16:32:52.679Z,61.37
2023-03-18T16:33:52.397Z,61.88
2023-03-18T16:34:52.406Z,61.68
2023-03-18T16:35:52.442Z,61.98
2023-03-18T16:36:52.423Z,61.57
2023-03-18T16:37:52.419Z,61.47
2023-03-18T16:38:52.330Z,61.88
2023-03-18T16:39:52.400Z,62.32
2023-03-18T16:40:54.716Z,62.41
2023-03-18T16:41:52.399Z,62.62
2023-03-18T16:42:52.600Z,62.62
2023-03-18T16:43:52.432Z,62.65
2023-03-18T16:44:52.267Z,62.24
2023-03-18T16:45:52.459Z,62.04
2023-03-18T16:46:52.245Z,62.35
2023-03-18T16:47:52.415Z,62.24
2023-03-18T16:48:52.351Z,61.53
2023-03-18T16:49:52.526Z,61.94
2023-03-18T16:50:52.245Z,61.76
2023-03-18T16:51:52.193Z,61.97
2023-03-18T16:52:52.268Z,61.76
2023-03-18T16:53:52.140Z,61.46
2023-03-18T16:54:52.342Z,61.76
2023-03-18T16:55:52.460Z,61.97
2023-03-18T16:56:52.070Z,61.79
2023-03-18T16:57:52.133Z,62.71
2023-03-18T16:58:52.241Z,63.01
2023-03-18T16:59:52.109Z,62.63
2023-03-18T17:00:52.160Z,62.63
2023-03-18T17:01:52.155Z,62.94
2023-03-18T17:02:52.015Z,63.24
2023-03-18T17:03:52.178Z,62.63
2023-03-18T17:04:52.015Z,63.04
2023-03-18T17:05:52.220Z,62.54
2023-03-18T17:06:51.997Z,63.24
2023-03-18T17:07:52.096Z,63.28
2023-03-18T17:08:51.932Z,62.97
2023-03-18T17:09:51.911Z,63.48
2023-03-18T17:10:51.963Z,63.68
2023-03-18T17:11:51.874Z,63.48
2023-03-18T17:12:51.988Z,63.58
2023-03-18T17:13:51.873Z,63.58
2023-03-18T17:14:51.933Z,63.07
2023-03-18T17:15:51.847Z,63.15
2023-03-18T17:16:51.981Z,63.99
2023-03-18T17:17:51.813Z,63.48
2023-03-18T17:18:52.031Z,63.48
2023-03-18T17:19:51.775Z,63.58
2023-03-18T17:20:51.774Z,63.79
2023-03-18T17:21:51.832Z,63.99
2023-03-18T17:22:51.761Z,63.79
2023-03-18T17:23:51.688Z,63.99
2023-03-18T17:24:52.007Z,63.99
2023-03-18T17:25:51.888Z,63.89
2023-03-18T17:26:51.696Z,63.89
2023-03-18T17:27:51.793Z,63.99
2023-03-18T17:28:51.942Z,63.99
2023-03-18T17:29:51.792Z,64.40
2023-03-18T17:30:51.776Z,64.81
2023-03-18T17:31:51.791Z,64.63
2023-03-18T17:32:51.661Z,64.43
2023-03-18T17:33:51.555Z,64.53
2023-03-18T17:34:51.682Z,64.63
2023-03-18T17:35:51.821Z,64.73
2023-03-18T17:36:51.732Z,64.73
2023-03-18T17:37:51.853Z,65.04
2023-03-18T17:38:51.615Z,65.14
2023-03-18T17:39:51.780Z,65.14
2023-03-18T17:40:51.509Z,65.58
2023-03-18T17:41:51.513Z,65.37
2023-03-18T17:42:51.714Z,65.48
2023-03-18T17:43:51.469Z,65.37
2023-03-18T17:44:51.419Z,65.48
2023-03-18T17:45:51.501Z,65.78
2023-03-18T17:46:51.620Z,65.48
2023-03-18T17:47:51.465Z,65.68
2023-03-18T17:48:51.683Z,65.92
2023-03-18T17:49:51.472Z,65.81
2023-03-18T17:50:51.329Z,66.12
2023-03-18T17:51:51.464Z,66.12
2023-03-18T17:52:51.345Z,67.14
2023-03-18T17:53:51.386Z,66.94
2023-03-18T17:54:51.391Z,67.07
2023-03-18T17:55:51.537Z,67.58
2023-03-18T17:56:51.294Z,67.38
2023-03-18T17:57:51.289Z,67.68
2023-03-18T17:58:51.469Z,67.68
2023-03-18T17:59:51.344Z,67.92
2023-03-18T18:00:51.411Z,68.33
2023-03-18T18:01:51.413Z,68.53
2023-03-18T18:02:51.349Z,68.63
2023-03-18T18:03:51.308Z,68.23
2023-03-18T18:04:51.163Z,68.97
2023-03-18T18:05:51.231Z,69.28
2023-03-18T18:06:51.389Z,69.48
2023-03-18T18:07:51.139Z,69.69
2023-03-18T18:08:51.139Z,69.59
2023-03-18T18:09:51.191Z,70.10
2023-03-18T18:10:51.157Z,69.79
2023-03-18T18:11:51.473Z,70.34
2023-03-18T18:12:51.174Z,70.13
2023-03-18T18:13:51.161Z,70.34
2023-03-18T18:14:50.986Z,70.23
2023-03-18T18:15:51.356Z,70.43
2023-03-18T18:16:51.026Z,70.34
2023-03-18T18:17:51.117Z,70.64
2023-03-18T18:18:51.135Z,70.75
2023-03-18T18:19:50.939Z,71.05
2023-03-18T18:20:51.009Z,70.98
2023-03-18T18:21:50.930Z,71.49
2023-03-18T18:22:51.035Z,71.80
2023-03-18T18:23:50.908Z,72.14
2023-03-18T18:24:51.087Z,72.45
2023-03-18T18:25:50.881Z,72.55
2023-03-18T18:26:51.083Z,72.99
2023-03-18T18:27:50.969Z,73.91
2023-03-18T18:28:51.034Z,74.32
2023-03-18T18:29:50.816Z,74.15
2023-03-18T18:30:51.025Z,74.36
2023-03-18T18:31:50.945Z,74.66
2023-03-18T18:32:51.135Z,74.97
2023-03-18T18:33:50.800Z,75.28
2023-03-18T18:34:51.020Z,75.28
2023-03-18T18:35:50.864Z,75.59
2023-03-18T18:36:50.920Z,75.59
2023-03-18T18:37:50.819Z,75.28
2023-03-18T18:38:50.719Z,75.48
2023-03-18T18:39:50.849Z,75.28
2023-03-18T18:40:50.670Z,75.79
2023-03-18T18:41:50.650Z,75.82
2023-03-18T18:42:50.997Z,75.82
2023-03-18T18:43:50.614Z,75.82
2023-03-18T18:44:50.676Z,76.03
2023-03-18T18:45:50.610Z,75.73
2023-03-18T18:46:50.766Z,76.24
2023-03-18T18:47:50.815Z,76.54
2023-03-18T18:48:50.750Z,76.78
2023-03-18T18:49:50.818Z,76.68
2023-03-18T18:50:50.635Z,76.89
2023-03-18T18:51:50.612Z,77.09
2023-03-18T18:52:50.490Z,76.89
2023-03-18T18:53:50.534Z,76.99
2023-03-18T18:54:50.568Z,76.78
2023-03-18T18:55:50.537Z,76.99
2023-03-18T18:56:50.450Z,77.23
2023-03-18T18:57:50.499Z,77.74
2023-03-18T18:58:50.670Z,78.29
2023-03-18T18:59:50.523Z,78.50
2023-03-18T19:00:50.549Z,78.85
2023-03-18T19:01:50.540Z,80.07
2023-03-18T19:02:50.365Z,80.28
2023-03-18T19:03:50.608Z,80.18
2023-03-18T19:04:50.680Z,79.77
2023-03-18T19:05:50.326Z,78.74
2023-03-18T19:06:50.408Z,78.94
2023-03-18T19:07:50.338Z,78.74
2023-03-18T19:08:50.344Z,78.64
2023-03-18T19:09:50.531Z,78.94
2023-03-18T19:10:50.332Z,78.02
2023-03-18T19:11:50.771Z,78.33
2023-03-18T19:12:50.378Z,78.02
2023-03-18T19:13:50.291Z,78.12
2023-03-18T19:14:50.332Z,78.43
2023-03-18T19:15:50.530Z,78.53
2023-03-18T19:16:50.227Z,79.19
2023-03-18T19:17:50.277Z,78.98
2023-03-18T19:18:50.170Z,78.02
2023-03-18T19:19:50.217Z,77.10
2023-03-18T19:20:50.107Z,76.75
2023-03-18T19:21:50.177Z,76.75
2023-03-18T19:22:50.162Z,76.34
2023-03-18T19:23:50.207Z,75.73
2023-03-18T19:24:50.110Z,75.93
2023-03-18T19:25:50.236Z,78.19
2023-03-18T19:26:50.352Z,78.19
2023-03-18T19:27:50.206Z,78.33
2023-03-18T19:28:59.453Z,79.19
2023-03-18T19:29:50.192Z,80.01
2023-03-18T19:30:49.991Z,80.35
2023-03-18T19:31:50.098Z,81.38
2023-03-18T19:32:50.034Z,82.65
2023-03-18T19:33:50.266Z,83.58
2023-03-18T19:34:50.031Z,83.62
2023-03-18T19:35:50.000Z,84.95
2023-03-18T19:36:49.938Z,85.20
2023-03-18T19:37:49.954Z,85.92
2023-03-18T19:38:49.936Z,86.85
2023-03-18T19:39:49.880Z,87.30
2023-03-18T19:40:50.006Z,88.33
2023-03-18T19:41:49.861Z,88.12
2023-03-18T19:42:49.852Z,88.68
2023-03-18T19:43:49.868Z,90.12
2023-03-18T19:44:49.890Z,90.43
2023-03-18T19:45:51.889Z,90.73
2023-03-18T19:46:50.016Z,91.25
2023-03-18T19:47:49.916Z,91.09
2023-03-18T19:48:49.998Z,91.09
2023-03-18T19:49:49.819Z,90.78
2023-03-18T19:50:49.714Z,90.61
2023-03-18T19:51:49.749Z,91.34
2023-03-18T19:52:49.715Z,91.54
2023-03-18T19:53:49.682Z,92.06
2023-03-18T19:54:49.765Z,92.06
2023-03-18T19:55:49.872Z,92.27
2023-03-18T19:56:49.673Z,92.51
2023-03-18T19:57:49.678Z,92.51
2023-03-18T19:58:49.763Z,92.21
2023-03-18T19:59:49.669Z,92.10
2023-03-18T20:00:49.739Z,92.41
2023-03-18T20:01:49.579Z,92.55
2023-03-18T20:02:49.698Z,92.46
2023-03-18T20:03:49.632Z,92.55
2023-03-18T20:04:49.534Z,92.66
2023-03-18T20:05:49.628Z,93.22
2023-03-18T20:06:49.664Z,93.43
2023-03-18T20:07:49.567Z,93.43
2023-03-18T20:08:49.692Z,93.43
2023-03-18T20:09:49.595Z,93.22
2023-03-18T20:10:49.683Z,93.32
2023-03-18T20:11:49.604Z,93.88
2023-03-18T20:12:49.407Z,94.19
2023-03-18T20:13:49.521Z,93.98
2023-03-18T20:14:49.408Z,94.09
2023-03-18T20:15:49.531Z,94.29
2023-03-18T20:16:49.484Z,94.09
2023-03-18T20:17:49.647Z,93.88
2023-03-18T20:18:49.389Z,93.93
2023-03-18T20:19:49.315Z,94.34
2023-03-18T20:20:49.415Z,94.44
2023-03-18T20:21:49.519Z,94.28
2023-03-18T20:22:49.456Z,94.18
2023-03-18T20:23:49.295Z,94.38
2023-03-18T20:24:49.389Z,95.10
2023-03-18T20:25:49.553Z,95.52
2023-03-18T20:26:49.431Z,95.73
2023-03-18T20:27:49.228Z,96.55
2023-03-18T20:28:49.501Z,96.76
2023-03-18T20:29:49.231Z,96.66
2023-03-18T20:30:49.177Z,96.55
2023-03-18T20:31:49.258Z,96.34
2023-03-18T20:32:49.450Z,96.76
2023-03-18T20:33:49.202Z,97.07
2023-03-18T20:34:49.214Z,96.86
2023-03-18T20:35:49.211Z,96.66
2023-03-18T20:36:49.110Z,96.70
2023-03-18T20:37:49.197Z,96.70
2023-03-18T20:38:49.079Z,96.80
2023-03-18T20:39:49.302Z,97.01
2023-03-18T20:40:49.067Z,96.91
2023-03-18T20:41:49.037Z,96.59
2023-03-18T20:42:49.065Z,96.19
2023-03-18T20:43:49.215Z,96.33
2023-03-18T20:44:49.043Z,96.44
2023-03-18T20:45:49.120Z,96.75
2023-03-18T20:46:49.070Z,96.95
2023-03-18T20:47:48.920Z,96.85
2023-03-18T20:48:49.138Z,96.85
2023-03-18T20:49:48.942Z,96.79
2023-03-18T20:50:49.073Z,96.58
2023-03-18T20:51:49.005Z,96.79
2023-03-18T20:52:48.893Z,96.79
2023-03-18T20:53:48.877Z,96.89
2023-03-18T20:54:48.903Z,96.79
2023-03-18T20:55:48.882Z,96.83
2023-03-18T20:56:49.129Z,97.14
2023-03-18T20:57:48.968Z,97.14
2023-03-18T20:58:48.863Z,96.83
2023-03-18T20:59:48.898Z,96.52
2023-03-18T21:00:48.829Z,96.42
2023-03-18T21:01:48.879Z,96.73
2023-03-18T21:02:48.829Z,97.56
2023-03-18T21:03:48.801Z,98.02
2023-03-18T21:04:48.761Z,97.91
2023-03-18T21:05:48.892Z,97.60
2023-03-18T21:06:48.744Z,97.50
2023-03-18T21:07:49.009Z,97.60
2023-03-18T21:08:48.693Z,97.71
2023-03-18T21:09:48.926Z,98.02
2023-03-18T21:10:48.737Z,98.33
2023-03-18T21:11:48.662Z,98.22
2023-03-18T21:12:48.823Z,97.91
2023-03-18T21:13:48.628Z,97.60
2023-03-18T21:14:48.763Z,97.29
2023-03-18T21:15:48.598Z,97.13
2023-03-18T21:16:48.612Z,96.92
2023-03-18T21:17:48.561Z,96.92
2023-03-18T21:18:48.877Z,97.55
2023-03-18T21:19:48.470Z,97.75
2023-03-18T21:20:48.527Z,98.07
2023-03-18T21:21:48.528Z,98.38
2023-03-18T21:22:48.522Z,98.63
2023-03-18T21:23:48.545Z,98.73
2023-03-18T21:24:48.585Z,98.83
2023-03-18T21:25:48.845Z,99.04
2023-03-18T21:27:01.576Z,99.15
2023-03-18T21:27:48.394Z,99.15
2023-03-18T21:28:49.232Z,99.04
2023-03-18T21:29:48.756Z,98.99
2023-03-18T21:30:48.388Z,98.88
2023-03-18T21:31:48.388Z,98.78
2023-03-18T21:32:48.465Z,99.09
2023-03-18T21:33:48.575Z,99.61
2023-03-18T21:34:48.484Z,99.92
2023-03-18T21:35:48.356Z,99.99
2023-03-18T21:36:48.405Z,99.99
2023-03-18T21:37:48.257Z,99.99
2023-03-18T21:38:48.273Z,99.99
2023-03-18T21:39:48.338Z,99.99
2023-03-18T21:40:48.411Z,99.99
2023-03-18T21:41:48.320Z,99.99
2023-03-18T21:42:48.389Z,99.99
2023-03-18T21:43:48.250Z,99.99
2023-03-18T21:44:48.199Z,99.99
2023-03-18T21:45:48.278Z,99.99
2023-03-18T21:46:48.404Z,99.99
2023-03-18T21:47:48.155Z,99.99
2023-03-18T21:48:48.172Z,99.99
2023-03-18T21:49:48.264Z,99.99
2023-03-18T21:50:48.132Z,99.99
2023-03-18T21:51:48.344Z,99.99
2023-03-18T21:52:48.083Z,99.99
2023-03-18T21:53:48.058Z,99.99
2023-03-18T21:54:48.105Z,99.99
2023-03-18T21:55:48.271Z,99.96
2023-03-18T21:56:48.108Z,99.96
2023-03-18T21:57:49.272Z,99.99
2023-03-18T21:58:48.111Z,99.99
2023-03-18T21:59:47.984Z,99.99
2023-03-18T22:00:48.106Z,99.99
2023-03-18T22:01:48.318Z,99.99
2023-03-18T22:02:48.019Z,99.99
2023-03-18T22:03:48.140Z,99.99
2023-03-18T22:04:48.091Z,99.99
2023-03-18T22:05:47.965Z,99.99
2023-03-18T22:06:47.911Z,99.99
2023-03-18T22:07:47.989Z,99.99
2023-03-18T22:08:47.884Z,99.99
2023-03-18T22:09:48.026Z,99.99
2023-03-18T22:10:48.130Z,99.99
2023-03-18T22:11:47.936Z,99.99
2023-03-18T22:12:48.154Z,99.99
2023-03-18T22:13:47.924Z,99.99
2023-03-18T22:14:47.782Z,99.99
2023-03-18T22:15:48.332Z,99.99
2023-03-18T22:16:47.770Z,99.99
2023-03-18T22:17:47.966Z,99.99
2023-03-18T22:18:47.764Z,99.99
2023-03-18T22:19:47.953Z,99.99
2023-03-18T22:20:47.777Z,99.99
2023-03-18T22:21:48.078Z,99.99
2023-03-18T22:22:47.780Z,99.99
2023-03-18T22:23:47.684Z,99.99
2023-03-18T22:24:47.675Z,99.99
2023-03-18T22:25:47.723Z,99.99
2023-03-18T22:26:47.772Z,99.99
2023-03-18T22:27:47.716Z,99.99
2023-03-18T22:28:47.794Z,99.99
2023-03-18T22:29:47.627Z,99.99
2023-03-18T22:30:47.782Z,99.99
2023-03-18T22:31:47.711Z,99.99
2023-03-18T22:32:47.927Z,99.99
2023-03-18T22:33:47.777Z,99.99
2023-03-18T22:34:47.785Z,99.99
2023-03-18T22:35:47.681Z,99.99
2023-03-18T22:36:47.507Z,99.99
2023-03-18T22:37:47.650Z,99.99
2023-03-18T22:38:47.446Z,99.99
2023-03-18T22:39:47.556Z,99.99
2023-03-18T22:40:47.468Z,99.99
2023-03-18T22:41:47.453Z,99.99
2023-03-18T22:42:47.452Z,99.99
2023-03-18T22:43:47.653Z,99.99
2023-03-18T22:44:47.431Z,99.99
2023-03-18T22:45:47.628Z,99.99
2023-03-18T22:46:47.503Z,99.99
2023-03-18T22:47:47.361Z,99.99
2023-03-18T22:48:47.461Z,99.99
2023-03-18T22:49:47.651Z,99.99
2023-03-18T22:50:47.531Z,99.99
2023-03-18T22:51:47.321Z,99.99
2023-03-18T22:52:47.452Z,99.99
2023-03-18T22:53:47.301Z,99.99
2023-03-18T22:54:47.327Z,99.99
2023-03-18T22:55:47.249Z,99.99
2023-03-18T22:56:47.255Z,99.99
2023-03-18T22:57:47.350Z,99.99
2023-03-18T22:58:47.196Z,99.99
2023-03-18T22:59:47.320Z,99.99
2023-03-18T23:00:47.176Z,99.99
2023-03-18T23:01:47.197Z,99.99
2023-03-18T23:02:47.240Z,99.99
2023-03-18T23:03:47.152Z,99.99
2023-03-18T23:04:47.117Z,99.99
2023-03-18T23:05:47.113Z,99.99
2023-03-18T23:06:47.165Z,99.99
2023-03-18T23:07:47.100Z,99.99
2023-03-18T23:08:47.219Z,99.99
2023-03-18T23:09:56.161Z,99.99
2023-03-18T23:10:47.119Z,99.99
2023-03-18T23:11:47.006Z,99.99
2023-03-18T23:12:47.124Z,99.99
2023-03-18T23:13:47.085Z,99.99
2023-03-18T23:14:47.005Z,99.99
2023-03-18T23:15:46.973Z,99.99
2023-03-18T23:16:47.149Z,99.99
2023-03-18T23:17:46.968Z,99.99
2023-03-18T23:18:47.233Z,99.99
2023-03-18T23:19:46.976Z,99.99
2023-03-18T23:20:47.133Z,99.99
2023-03-18T23:21:46.961Z,99.99
2023-03-18T23:22:46.869Z,99.99
2023-03-18T23:23:46.959Z,99.99
2023-03-18T23:24:46.897Z,99.99
2023-03-18T23:25:47.028Z,99.99
2023-03-18T23:26:46.811Z,99.99
2023-03-18T23:27:46.962Z,99.99
2023-03-18T23:28:46.829Z,99.99
2023-03-18T23:29:46.766Z,99.99
2023-03-18T23:30:46.846Z,99.99
2023-03-18T23:31:47.061Z,99.99
2023-03-18T23:32:46.927Z,99.99
2023-03-18T23:33:46.987Z,99.99
2023-03-18T23:34:46.824Z,99.99